Time;durP1;ratioP1;P1;durP2;ratioP2;P2;SDS_P1;SDS_P2;PMS_P1;PMS_P2;Temp;Humidity;BMP_temperature;BMP_pressure;BME280_temperature;BME280_humidity;BME280_pressure;Samples;Min_cycle;Max_cycle;Signal;HPM_P1;HPM_P2
2021/04/06 00:02:20;;;;;;;6.88;1.23;;;1.50;95.20;;;;;;5055423;28;20033;-69
2021/04/06 00:04:48;;;;;;;3.78;1.20;;;1.50;94.80;;;;;;5054949;28;20136;-69
2021/04/06 00:07:17;;;;;;;6.20;1.30;;;1.40;94.90;;;;;;5055152;28;20045;-69
2021/04/06 00:09:49;;;;;;;6.78;1.65;;;1.50;95.10;;;;;;5037606;28;20059;-69
2021/04/06 00:12:17;;;;;;;7.63;1.90;;;1.60;95.00;;;;;;5054844;28;20033;-69
2021/04/06 00:14:45;;;;;;;15.07;2.50;;;1.60;94.80;;;;;;5054541;28;20481;-69
2021/04/06 00:17:12;;;;;;;6.43;1.48;;;1.60;94.90;;;;;;5054689;28;20064;-69
2021/04/06 00:19:42;;;;;;;9.43;3.55;;;1.60;94.80;;;;;;5054652;28;20045;-69
2021/04/06 00:22:09;;;;;;;10.93;1.60;;;1.70;94.60;;;;;;5055015;28;20507;-69
2021/04/06 00:24:39;;;;;;;13.95;2.78;;;1.60;94.70;;;;;;5054562;28;20116;-69
2021/04/06 00:27:12;;;;;;;7.82;2.05;;;1.60;94.40;;;;;;5054469;28;20048;-69
2021/04/06 00:29:41;;;;;;;11.30;2.08;;;1.60;94.60;;;;;;5037040;28;20053;-69
2021/04/06 00:32:08;;;;;;;10.57;1.73;;;1.60;94.50;;;;;;5054909;28;20083;-69
2021/04/06 00:34:36;;;;;;;13.57;2.55;;;1.60;94.50;;;;;;5054540;28;20043;-69
2021/04/06 00:37:16;;;;;;;8.40;1.65;;;1.70;94.80;;;;;;5054777;28;20068;-69
2021/04/06 00:39:43;;;;;;;7.13;2.30;;;1.70;94.80;;;;;;5054250;28;20504;-69
2021/04/06 00:42:10;;;;;;;10.85;1.55;;;1.60;95.00;;;;;;5054732;28;20063;-69
2021/04/06 00:44:40;;;;;;;11.57;1.90;;;1.60;94.80;;;;;;5054278;28;20041;-70
2021/04/06 00:47:08;;;;;;;9.50;1.80;;;1.60;94.90;;;;;;5054631;28;20048;-70
2021/04/06 00:49:35;;;;;;;6.53;1.63;;;1.60;94.90;;;;;;5054072;28;20049;-70
2021/04/06 00:52:03;;;;;;;5.03;1.42;;;1.60;95.00;;;;;;5053837;28;20547;-70
2021/04/06 00:54:29;;;;;;;6.68;1.30;;;1.70;95.20;;;;;;5053754;28;20033;-70
2021/04/06 00:57:00;;;;;;;4.28;1.27;;;1.70;95.20;;;;;;5053912;28;20514;-70
2021/04/06 00:59:26;;;;;;;5.00;1.10;;;1.70;95.10;;;;;;5054462;28;20041;-70
2021/04/06 01:01:59;;;;;;;5.47;1.00;;;1.70;95.00;;;;;;5054082;28;20107;-70
2021/04/06 01:04:27;;;;;;;10.35;1.33;;;1.70;95.10;;;;;;5053776;28;20136;-70
2021/04/06 01:07:14;;;;;;;4.60;1.30;;;1.70;95.10;;;;;;5053894;28;20484;-70
2021/04/06 01:09:55;;;;;;;5.80;1.42;;;1.60;95.00;;;;;;5053865;28;20049;-70
2021/04/06 01:12:23;;;;;;;6.93;1.27;;;1.60;95.20;;;;;;5053769;28;20591;-70
2021/04/06 01:14:50;;;;;;;8.57;1.73;;;1.60;95.30;;;;;;5053499;28;20036;-70
2021/04/06 01:17:18;;;;;;;9.95;2.08;;;1.60;95.20;;;;;;5053624;28;20481;-70
2021/04/06 01:19:44;;;;;;;15.05;1.75;;;1.60;95.10;;;;;;5053717;28;20043;-70
2021/04/06 01:22:13;;;;;;;9.27;1.75;;;1.60;95.00;;;;;;5053528;28;20037;-70
2021/04/06 01:24:39;;;;;;;11.20;2.38;;;1.50;94.80;;;;;;5035632;28;20033;-70
2021/04/06 01:27:08;;;;;;;12.73;1.92;;;1.50;94.90;;;;;;5054018;28;20381;-70
2021/04/06 01:29:35;;;;;;;10.32;2.35;;;1.60;94.90;;;;;;5053793;28;20075;-70
2021/04/06 01:32:01;;;;;;;13.82;2.22;;;1.70;94.90;;;;;;5053488;28;20472;-70
2021/04/06 01:34:28;;;;;;;10.52;3.33;;;1.70;94.10;;;;;;5053021;28;20037;-70
2021/04/06 01:36:55;;;;;;;12.52;2.78;;;1.70;94.20;;;;;;5053222;28;20037;-70
2021/04/06 01:39:24;;;;;;;13.75;2.50;;;1.70;94.50;;;;;;5053335;28;20568;-70
2021/04/06 01:41:55;;;;;;;15.57;3.08;;;1.80;94.10;;;;;;5053833;28;20032;-70
2021/04/06 01:44:21;;;;;;;15.23;3.05;;;1.70;94.00;;;;;;5053371;28;20115;-70
2021/04/06 01:46:48;;;;;;;13.73;3.63;;;1.80;93.80;;;;;;5053155;28;20124;-70
2021/04/06 01:49:15;;;;;;;20.67;2.72;;;1.80;93.50;;;;;;5035845;28;20561;-70
2021/04/06 01:51:42;;;;;;;14.52;2.50;;;1.80;93.30;;;;;;5053223;28;20063;-71
2021/04/06 01:54:10;;;;;;;18.30;3.00;;;1.80;93.40;;;;;;5053094;28;20037;-70
2021/04/06 01:56:53;;;;;;;15.77;2.92;;;1.90;93.20;;;;;;5052736;28;20044;-70
2021/04/06 01:59:23;;;;;;;23.98;4.20;;;1.90;93.00;;;;;;5052911;28;20087;-70
2021/04/06 02:01:54;;;;;;;18.00;3.50;;;2.00;92.90;;;;;;5053508;28;20033;-69
2021/04/06 02:04:23;;;;;;;14.18;3.30;;;2.10;92.30;;;;;;5053516;28;20040;-70
2021/04/06 02:06:50;;;;;;;11.93;3.20;;;2.20;91.80;;;;;;5052921;28;20086;-70
2021/04/06 02:09:18;;;;;;;13.20;2.50;;;2.20;91.40;;;;;;5035579;28;20037;-70
2021/04/06 02:11:45;;;;;;;18.58;3.83;;;2.20;90.90;;;;;;5052932;28;20037;-70
2021/04/06 02:14:19;;;;;;;12.60;3.08;;;2.20;90.40;;;;;;5053286;28;20086;-70
2021/04/06 02:16:55;;;;;;;18.08;2.60;;;2.30;90.10;;;;;;5052545;28;20065;-70
2021/04/06 02:19:22;;;;;;;15.82;2.35;;;2.20;90.40;;;;;;5052874;28;20416;-70
2021/04/06 02:21:53;;;;;;;13.75;3.03;;;2.20;90.30;;;;;;5035136;28;20063;-70
2021/04/06 02:24:35;;;;;;;13.80;2.97;;;2.20;90.20;;;;;;5053110;28;20044;-70
2021/04/06 02:27:05;;;;;;;15.23;2.08;;;2.30;90.10;;;;;;5053247;28;20040;-70
2021/04/06 02:29:40;;;;;;;12.27;2.28;;;2.20;90.30;;;;;;5052718;28;20060;-70
2021/04/06 02:32:08;;;;;;;20.38;3.88;;;2.20;90.40;;;;;;5052958;28;20043;-70
2021/04/06 02:34:37;;;;;;;15.15;2.55;;;2.20;90.50;;;;;;5052572;28;20033;-70
2021/04/06 02:37:03;;;;;;;23.30;4.00;;;2.20;90.50;;;;;;5052535;28;20489;-70
2021/04/06 02:39:37;;;;;;;18.95;3.53;;;2.20;90.70;;;;;;5053136;28;20051;-70
2021/04/06 02:42:26;;;;;;;13.05;3.40;;;2.20;90.80;;;;;;5052634;28;20037;-70
2021/04/06 02:45:15;;;;;;;14.63;3.60;;;2.20;91.10;;;;;;5052325;28;20121;-70
2021/04/06 02:47:45;;;;;;;14.20;4.47;;;2.20;91.00;;;;;;5052775;28;20048;-70
2021/04/06 02:50:14;;;;;;;18.10;3.08;;;2.30;90.80;;;;;;5034952;28;20056;-70
2021/04/06 02:52:41;;;;;;;18.52;3.60;;;2.40;90.10;;;;;;5052503;28;20045;-70
2021/04/06 02:55:08;;;;;;;14.95;3.22;;;2.30;90.20;;;;;;5052787;28;20044;-70
2021/04/06 02:57:47;;;;;;;14.20;3.42;;;2.30;89.90;;;;;;5052609;28;20060;-70
2021/04/06 03:00:42;;;;;;;17.60;3.83;;;2.30;90.20;;;;;;5052425;28;20463;-70
2021/04/06 03:03:25;;;;;;;15.13;3.40;;;2.20;90.30;;;;;;5031727;28;20044;-70
2021/04/06 03:06:02;;;;;;;16.27;3.58;;;2.10;90.30;;;;;;5052073;28;20047;-70
2021/04/06 03:08:30;;;;;;;26.10;4.10;;;2.10;90.40;;;;;;5052421;28;20477;-70
2021/04/06 03:10:56;;;;;;;17.23;3.28;;;2.10;90.60;;;;;;5052963;28;20033;-70
2021/04/06 03:13:25;;;;;;;14.82;3.17;;;2.10;90.50;;;;;;5052879;28;20507;-70
2021/04/06 03:15:51;;;;;;;15.05;3.20;;;2.10;90.10;;;;;;5055482;28;20481;-70
2021/04/06 03:18:17;;;;;;;16.60;3.15;;;2.20;90.40;;;;;;5055785;28;20045;-70
2021/04/06 03:20:43;;;;;;;14.48;3.05;;;2.20;90.50;;;;;;5056173;28;20059;-70
2021/04/06 03:23:09;;;;;;;21.15;3.70;;;2.30;90.30;;;;;;5055981;28;20121;-70
2021/04/06 03:25:36;;;;;;;10.95;2.83;;;2.20;90.30;;;;;;5055496;28;20037;-70
2021/04/06 03:28:13;;;;;;;19.17;3.47;;;2.20;90.50;;;;;;5055903;28;20131;-70
2021/04/06 03:30:40;;;;;;;19.20;3.60;;;2.20;90.50;;;;;;5055717;28;20043;-70
2021/04/06 03:33:07;;;;;;;14.48;3.30;;;2.20;90.80;;;;;;5055646;28;20033;-70
2021/04/06 03:35:35;;;;;;;11.57;3.40;;;2.20;90.40;;;;;;5055131;28;20069;-71
2021/04/06 03:38:03;;;;;;;14.75;3.60;;;2.30;90.30;;;;;;5056014;28;20124;-69
2021/04/06 03:40:37;;;;;;;15.50;2.85;;;2.20;90.00;;;;;;5055960;28;20071;-70
2021/04/06 03:43:20;;;;;;;14.13;2.67;;;2.40;88.50;;;;;;5055506;28;20488;-70
2021/04/06 03:46:03;;;;;;;24.52;5.43;;;2.40;87.80;;;;;;5055037;28;20509;-70
2021/04/06 03:48:31;;;;;;;17.80;2.88;;;2.30;87.60;;;;;;5055837;28;20041;-70
2021/04/06 03:50:59;;;;;;;13.90;2.83;;;2.30;88.00;;;;;;5055307;28;20033;-70
2021/04/06 03:53:35;;;;;;;17.60;3.53;;;2.30;88.20;;;;;;5055144;28;20488;-70
2021/04/06 03:56:13;;;;;;;15.85;3.45;;;2.20;87.70;;;;;;5054831;28;20541;-70
2021/04/06 03:58:54;;;;;;;12.88;2.70;;;2.30;87.70;;;;;;5037784;28;20115;-70
2021/04/06 04:01:19;;;;;;;20.90;4.05;;;2.30;88.40;;;;;;5055231;28;20060;-70
2021/04/06 04:03:45;;;;;;;12.40;2.58;;;2.20;89.10;;;;;;5053904;28;20059;-70
2021/04/06 04:06:24;;;;;;;15.52;3.03;;;2.10;90.10;;;;;;5054762;28;20040;-70
2021/04/06 04:08:51;;;;;;;14.77;3.05;;;2.10;90.30;;;;;;5055210;28;20511;-70
2021/04/06 04:11:16;;;;;;;15.70;2.83;;;2.00;90.50;;;;;;5055071;28;20037;-70
2021/04/06 04:13:42;;;;;;;16.65;3.15;;;2.00;90.40;;;;;;5037377;28;20033;-70
2021/04/06 04:16:08;;;;;;;14.90;4.00;;;2.00;90.10;;;;;;5054383;28;20041;-70
2021/04/06 04:18:33;;;;;;;9.55;3.35;;;2.10;90.30;;;;;;5054616;28;20185;-70
2021/04/06 04:21:01;;;;;;;13.90;2.80;;;2.00;90.30;;;;;;5037154;28;20036;-70
2021/04/06 04:23:27;;;;;;;11.32;2.25;;;2.00;90.30;;;;;;5054675;28;20037;-70
2021/04/06 04:25:53;;;;;;;9.45;2.38;;;2.00;90.00;;;;;;5053244;28;20051;-70
2021/04/06 04:28:18;;;;;;;9.40;2.33;;;2.00;89.80;;;;;;5054732;28;20508;-70
2021/04/06 04:30:49;;;;;;;14.60;2.83;;;2.00;89.50;;;;;;5054276;28;20044;-71
2021/04/06 04:33:15;;;;;;;13.40;2.78;;;2.00;90.20;;;;;;5055190;28;20041;-70
2021/04/06 04:35:41;;;;;;;7.50;1.85;;;1.90;90.00;;;;;;5054162;28;20055;-70
2021/04/06 04:38:07;;;;;;;8.75;3.08;;;2.00;89.70;;;;;;5054624;28;20060;-70
2021/04/06 04:40:34;;;;;;;15.70;3.92;;;2.00;89.90;;;;;;5037025;28;20040;-70
2021/04/06 04:43:00;;;;;;;10.88;2.40;;;2.00;90.20;;;;;;5054256;28;20036;-70
2021/04/06 04:45:26;;;;;;;10.02;2.83;;;1.90;90.00;;;;;;5054223;28;20067;-70
2021/04/06 04:47:52;;;;;;;11.93;2.55;;;1.90;89.70;;;;;;5054079;28;20049;-70
2021/04/06 04:50:22;;;;;;;12.48;2.75;;;1.90;90.10;;;;;;5054343;28;20473;-70
2021/04/06 04:52:49;;;;;;;12.57;2.53;;;2.00;90.00;;;;;;5054236;28;20067;-70
2021/04/06 04:55:17;;;;;;;10.40;2.28;;;2.20;89.10;;;;;;5054064;28;20045;-70
2021/04/06 04:57:43;;;;;;;11.05;2.70;;;2.10;90.40;;;;;;5036665;28;20087;-70
2021/04/06 05:00:10;;;;;;;7.03;2.47;;;1.90;91.00;;;;;;5036383;28;20048;-70
2021/04/06 05:02:36;;;;;;;10.63;2.35;;;1.90;91.70;;;;;;5054157;28;20033;-70
2021/04/06 05:05:02;;;;;;;10.75;3.88;;;1.80;92.20;;;;;;5035916;28;20056;-70
2021/04/06 05:07:28;;;;;;;9.38;2.42;;;1.70;92.30;;;;;;5053828;28;20485;-70
2021/04/06 05:09:54;;;;;;;11.75;2.90;;;1.70;92.40;;;;;;5053990;28;20087;-70
2021/04/06 05:12:20;;;;;;;13.10;3.78;;;1.70;92.80;;;;;;5053860;28;20116;-71
2021/04/06 05:14:46;;;;;;;15.27;3.05;;;1.70;92.70;;;;;;5053391;28;20041;-70
2021/04/06 05:17:13;;;;;;;10.40;2.17;;;1.60;92.70;;;;;;5053849;28;20049;-70
2021/04/06 05:19:39;;;;;;;10.50;3.38;;;1.70;92.70;;;;;;5053728;28;20069;-70
2021/04/06 05:22:05;;;;;;;20.13;2.80;;;1.70;93.00;;;;;;5053733;28;20191;-70
2021/04/06 05:24:31;;;;;;;15.38;2.92;;;1.70;93.00;;;;;;5053396;28;20044;-70
2021/04/06 05:26:57;;;;;;;10.52;2.88;;;1.80;92.70;;;;;;5052356;28;20485;-71
2021/04/06 05:29:22;;;;;;;20.65;3.03;;;1.80;92.70;;;;;;5053595;28;20098;-70
2021/04/06 05:31:49;;;;;;;14.00;3.60;;;1.90;92.70;;;;;;5054303;28;20076;-70
2021/04/06 05:34:15;;;;;;;11.77;2.97;;;1.90;92.70;;;;;;5053825;28;20040;-69
2021/04/06 05:36:41;;;;;;;13.73;3.97;;;2.00;92.90;;;;;;5052843;28;20049;-70
2021/04/06 05:39:07;;;;;;;16.50;3.40;;;2.10;92.50;;;;;;5053903;28;20041;-70
2021/04/06 05:41:34;;;;;;;11.85;2.90;;;2.20;92.40;;;;;;5053232;28;20043;-70
2021/04/06 05:44:04;;;;;;;18.52;3.25;;;2.20;92.40;;;;;;5053645;28;20095;-69
2021/04/06 05:46:36;;;;;;;13.55;3.22;;;2.30;92.30;;;;;;5052928;28;20056;-69
2021/04/06 05:49:06;;;;;;;13.65;3.10;;;2.40;91.90;;;;;;5053149;28;20107;-69
2021/04/06 05:51:32;;;;;;;13.52;2.15;;;2.50;91.50;;;;;;5053319;28;20151;-69
2021/04/06 05:53:58;;;;;;;11.65;2.08;;;2.60;91.30;;;;;;5053095;28;20049;-70
2021/04/06 05:56:24;;;;;;;10.25;2.22;;;2.70;91.10;;;;;;5052656;28;20032;-69
2021/04/06 05:58:55;;;;;;;15.98;1.92;;;2.80;90.60;;;;;;5053220;28;20041;-70
2021/04/06 06:01:21;;;;;;;8.27;1.80;;;2.80;90.50;;;;;;5053356;28;20028;-70
2021/04/06 06:03:47;;;;;;;6.93;1.95;;;2.90;90.20;;;;;;5052890;28;20041;-69
2021/04/06 06:06:14;;;;;;;6.00;1.45;;;2.90;90.10;;;;;;5052508;28;20044;-69
2021/04/06 06:08:40;;;;;;;6.30;1.75;;;2.90;89.50;;;;;;5053058;28;20211;-69
2021/04/06 06:11:06;;;;;;;6.45;1.58;;;3.00;89.50;;;;;;5053126;28;20095;-70
2021/04/06 06:13:35;;;;;;;9.45;1.92;;;2.90;88.60;;;;;;5053143;28;20124;-69
2021/04/06 06:16:10;;;;;;;8.90;1.63;;;2.80;88.30;;;;;;5052517;28;20443;-69
2021/04/06 06:19:10;;;;;;;7.53;1.95;;;2.70;89.30;;;;;;5052755;28;20437;-70
2021/04/06 06:21:47;;;;;;;8.63;3.22;;;2.60;89.30;;;;;;4953227;29;20054;-69
2021/04/06 06:24:28;;;;;;;8.93;1.83;;;2.50;89.80;;;;;;5039329;28;20083;-70
2021/04/06 06:26:58;;;;;;;11.05;2.45;;;2.40;89.70;;;;;;5052633;28;20053;-70
2021/04/06 06:29:30;;;;;;;18.33;2.75;;;2.30;89.30;;;;;;5035255;28;20044;-70
2021/04/06 06:31:59;;;;;;;12.32;2.90;;;2.30;90.00;;;;;;5052608;28;20041;-70
2021/04/06 06:34:28;;;;;;;10.20;2.10;;;2.20;90.00;;;;;;5052166;28;20045;-70
2021/04/06 06:37:08;;;;;;;10.93;2.53;;;2.30;88.90;;;;;;5052933;28;20121;-69
2021/04/06 06:39:40;;;;;;;9.45;2.20;;;2.30;88.50;;;;;;5052952;28;20041;-69
2021/04/06 06:42:11;;;;;;;4.88;1.67;;;2.40;89.20;;;;;;5052627;28;20037;-70
2021/04/06 06:44:37;;;;;;;8.57;2.00;;;2.70;89.00;;;;;;5052379;28;20044;-70
2021/04/06 06:47:11;;;;;;;7.35;2.10;;;3.10;87.30;;;;;;5034729;28;20037;-69
2021/04/06 06:49:38;;;;;;;14.55;2.80;;;3.40;86.50;;;;;;5055482;28;20086;-70
2021/04/06 06:52:22;;;;;;;12.05;3.20;;;3.60;85.00;;;;;;5056449;28;20390;-70
2021/04/06 06:54:57;;;;;;;8.25;2.38;;;3.80;84.10;;;;;;5055948;28;20490;-71
2021/04/06 06:57:32;;;;;;;9.90;2.50;;;4.00;83.10;;;;;;5056310;28;20053;-70
2021/04/06 07:00:19;;;;;;;9.40;3.45;;;3.90;82.60;;;;;;5056242;28;20041;-70
2021/04/06 07:02:44;;;;;;;10.80;2.22;;;3.70;82.20;;;;;;5056286;28;20044;-71
2021/04/06 07:05:21;;;;;;;4.85;1.73;;;3.70;82.50;;;;;;5056381;28;20041;-70
2021/04/06 07:07:46;;;;;;;7.95;2.25;;;3.80;83.40;;;;;;5056654;28;20041;-70
2021/04/06 07:10:14;;;;;;;6.18;1.90;;;3.80;81.90;;;;;;5056096;28;20431;-70
2021/04/06 07:12:44;;;;;;;6.60;2.17;;;3.70;83.20;;;;;;5056273;28;20094;-71
2021/04/06 07:15:11;;;;;;;5.13;1.50;;;3.40;82.60;;;;;;5055824;28;20041;-71
2021/04/06 07:17:41;;;;;;;5.13;1.20;;;3.10;84.30;;;;;;5055995;28;20485;-70
2021/04/06 07:20:10;;;;;;;6.57;1.38;;;2.90;85.20;;;;;;5056385;28;20041;-70
2021/04/06 07:22:37;;;;;;;3.53;1.75;;;2.80;86.10;;;;;;5056270;28;20044;-71
2021/04/06 07:25:03;;;;;;;2.97;0.85;;;2.80;87.60;;;;;;5055520;28;20033;-71
2021/04/06 07:27:29;;;;;;;3.03;1.30;;;2.80;86.70;;;;;;5056133;28;20037;-71
2021/04/06 07:29:55;;;;;;;7.00;1.67;;;2.70;86.70;;;;;;5055660;28;20044;-71
2021/04/06 07:32:21;;;;;;;2.70;1.15;;;2.70;86.60;;;;;;5055770;28;20124;-70
2021/04/06 07:34:47;;;;;;;4.57;1.15;;;2.80;86.60;;;;;;5055319;28;20159;-71
2021/04/06 07:37:12;;;;;;;7.13;1.25;;;3.20;86.90;;;;;;5055504;28;20032;-70
2021/04/06 07:39:40;;;;;;;6.65;1.48;;;3.60;86.20;;;;;;5037884;28;20497;-70
2021/04/06 07:42:07;;;;;;;11.75;1.80;;;3.80;83.30;;;;;;5055876;28;20547;-70
2021/04/06 07:44:37;;;;;;;6.28;2.05;;;4.10;83.50;;;;;;5055859;28;20060;-71
2021/04/06 07:47:03;;;;;;;3.97;1.45;;;4.30;84.00;;;;;;5055566;28;20473;-71
2021/04/06 07:49:30;;;;;;;8.05;1.90;;;4.50;83.60;;;;;;5055669;28;20068;-70
2021/04/06 07:51:59;;;;;;;6.55;1.42;;;4.60;82.60;;;;;;5055606;28;20064;-70
2021/04/06 07:54:43;;;;;;;7.50;1.17;;;4.90;82.80;;;;;;5070511;28;20047;-71
2021/04/06 07:57:09;;;;;;;3.88;1.02;;;5.00;81.60;;;;;;5075841;28;20044;-70
2021/04/06 07:59:34;;;;;;;5.25;1.08;;;5.10;80.20;;;;;;5075093;28;20385;-70
2021/04/06 08:02:01;;;;;;;3.58;1.33;;;5.20;79.00;;;;;;5075533;28;20033;-71
2021/04/06 08:04:47;;;;;;;3.65;1.40;;;5.10;77.20;;;;;;5074971;28;20060;-71
2021/04/06 08:07:19;;;;;;;5.30;2.25;;;4.80;76.00;;;;;;5074920;28;20119;-70
2021/04/06 08:09:49;;;;;;;4.53;1.60;;;4.70;77.10;;;;;;5074959;28;20369;-70
2021/04/06 08:12:33;;;;;;;8.18;1.65;;;4.90;76.70;;;;;;5075299;28;20044;-70
2021/04/06 08:15:04;;;;;;;3.90;1.35;;;5.00;77.10;;;;;;5056806;28;20028;-70
2021/04/06 08:17:30;;;;;;;3.25;1.63;;;5.20;77.00;;;;;;5074712;28;20064;-70
2021/04/06 08:20:07;;;;;;;5.97;1.48;;;5.30;77.60;;;;;;5074921;28;20044;-70
2021/04/06 08:22:54;;;;;;;10.05;2.22;;;5.40;76.20;;;;;;5075044;28;20070;-70
2021/04/06 08:25:22;;;;;;;10.25;1.63;;;5.40;76.30;;;;;;5074755;28;20036;-70
2021/04/06 08:27:56;;;;;;;7.63;1.17;;;5.50;77.80;;;;;;5074749;28;20124;-70
2021/04/06 08:30:25;;;;;;;7.40;1.65;;;5.60;77.30;;;;;;5074557;28;20102;-70
2021/04/06 08:32:58;;;;;;;6.63;1.80;;;5.80;77.60;;;;;;5074807;28;20469;-70
2021/04/06 08:35:39;;;;;;;7.45;1.98;;;5.90;77.50;;;;;;5074507;28;20033;-70
2021/04/06 08:38:32;;;;;;;6.57;1.38;;;5.70;76.80;;;;;;5074639;28;20044;-70
2021/04/06 08:41:05;;;;;;;10.85;2.42;;;5.40;77.90;;;;;;5074355;28;20481;-71
2021/04/06 08:43:42;;;;;;;3.10;1.15;;;4.80;79.90;;;;;;5074898;28;20075;-70
2021/04/06 08:46:35;;;;;;;4.22;1.20;;;4.80;82.70;;;;;;5074370;28;20040;-70
2021/04/06 08:49:01;;;;;;;5.95;1.30;;;5.00;82.10;;;;;;5062249;28;20059;-70
2021/04/06 08:51:41;;;;;;;7.40;1.67;;;5.30;82.20;;;;;;5074189;28;20485;-70
2021/04/06 08:54:10;;;;;;;8.93;1.50;;;5.50;81.50;;;;;;5074397;28;20483;-70
2021/04/06 08:56:48;;;;;;;7.32;2.08;;;5.80;81.50;;;;;;5073952;28;20059;-71
2021/04/06 08:59:15;;;;;;;4.88;1.10;;;5.80;80.20;;;;;;5074137;28;20476;-70
2021/04/06 09:01:42;;;;;;;7.38;1.15;;;5.90;78.90;;;;;;5074095;28;20111;-70
2021/04/06 09:04:21;;;;;;;8.02;1.70;;;5.90;79.40;;;;;;5074025;28;20064;-70
2021/04/06 09:06:48;;;;;;;9.05;1.42;;;6.00;78.40;;;;;;5074170;28;20037;-71
2021/04/06 09:09:17;;;;;;;9.68;1.77;;;6.00;78.90;;;;;;5074101;28;20070;-70
2021/04/06 09:11:43;;;;;;;9.05;1.80;;;6.10;76.80;;;;;;5073343;28;20078;-70
2021/04/06 09:14:10;;;;;;;8.30;1.45;;;6.10;77.00;;;;;;5074010;28;20036;-70
2021/04/06 09:16:36;;;;;;;5.65;1.10;;;6.30;78.70;;;;;;5073255;28;20124;-71
2021/04/06 09:19:11;;;;;;;7.32;1.63;;;6.20;77.90;;;;;;5073503;28;20195;-70
2021/04/06 09:21:39;;;;;;;5.00;1.63;;;6.30;77.20;;;;;;5073931;28;20485;-70
2021/04/06 09:24:08;;;;;;;8.43;2.70;;;6.40;77.40;;;;;;5072904;28;20459;-70
2021/04/06 09:26:34;;;;;;;9.73;2.10;;;6.40;75.50;;;;;;5073365;28;20115;-71
2021/04/06 09:29:11;;;;;;;6.05;1.75;;;6.60;77.00;;;;;;5073451;28;20033;-70
2021/04/06 09:31:41;;;;;;;8.70;1.98;;;6.90;75.70;;;;;;5073956;28;20465;-70
2021/04/06 09:34:31;;;;;;;6.63;1.50;;;7.00;76.50;;;;;;5073931;28;20040;-70
2021/04/06 09:36:58;;;;;;;6.75;2.15;;;6.70;75.80;;;;;;5073151;28;20129;-70
2021/04/06 09:39:26;;;;;;;7.75;2.28;;;6.30;76.00;;;;;;5073537;28;20489;-70
2021/04/06 09:41:52;;;;;;;11.38;2.00;;;6.00;77.60;;;;;;5073817;28;20068;-70
2021/04/06 09:44:25;;;;;;;7.55;1.92;;;5.70;77.00;;;;;;5073376;28;20040;-71
2021/04/06 09:46:56;;;;;;;10.15;1.90;;;5.90;78.70;;;;;;5073783;28;20044;-70
2021/04/06 09:49:28;;;;;;;7.13;1.63;;;5.80;77.20;;;;;;5055836;28;20546;-70
2021/04/06 09:51:55;;;;;;;7.53;1.77;;;5.70;77.80;;;;;;5073342;28;20036;-71
2021/04/06 09:54:30;;;;;;;6.45;1.67;;;5.90;77.40;;;;;;5054898;28;20059;-72
2021/04/06 09:56:58;;;;;;;6.30;1.70;;;5.80;76.70;;;;;;5073627;28;20040;-70
2021/04/06 09:59:24;;;;;;;8.35;1.67;;;6.00;78.10;;;;;;5073447;28;20047;-70
2021/04/06 10:01:55;;;;;;;10.60;2.30;;;5.90;77.80;;;;;;5073123;28;20090;-71
2021/04/06 10:04:51;;;;;;;7.95;2.00;;;5.90;77.80;;;;;;5073112;28;20481;-70
2021/04/06 10:07:20;;;;;;;13.23;2.35;;;5.80;76.60;;;;;;5052408;28;20497;-70
2021/04/06 10:09:51;;;;;;;15.25;2.65;;;5.70;77.70;;;;;;5073091;28;20037;-70
2021/04/06 10:12:20;;;;;;;8.35;2.13;;;5.80;79.60;;;;;;5073133;28;20063;-70
2021/04/06 10:14:46;;;;;;;12.05;2.10;;;5.70;78.70;;;;;;5072060;28;20048;-70
2021/04/06 10:17:32;;;;;;;7.57;2.38;;;5.60;79.30;;;;;;5072724;28;20052;-70
2021/04/06 10:20:08;;;;;;;13.30;2.70;;;5.80;79.10;;;;;;5072856;28;20040;-70
2021/04/06 10:22:42;;;;;;;10.15;1.70;;;5.60;77.20;;;;;;5074465;28;20080;-70
2021/04/06 10:25:09;;;;;;;5.70;1.52;;;5.20;77.90;;;;;;5059695;28;20048;-71
2021/04/06 10:27:44;;;;;;;11.02;2.30;;;5.00;77.90;;;;;;5077011;28;20098;-70
2021/04/06 10:30:13;;;;;;;8.27;2.50;;;5.20;80.10;;;;;;5077102;28;20055;-70
2021/04/06 10:32:47;;;;;;;12.30;1.98;;;5.40;80.40;;;;;;5077351;28;20040;-70
2021/04/06 10:35:26;;;;;;;16.85;2.58;;;5.70;77.50;;;;;;5076788;28;20447;-70
2021/04/06 10:37:58;;;;;;;12.05;1.85;;;5.80;75.50;;;;;;5076627;28;20048;-70
2021/04/06 10:40:33;;;;;;;10.85;2.13;;;5.80;76.50;;;;;;5076913;28;20119;-70
2021/04/06 10:43:10;;;;;;;8.00;1.50;;;6.10;74.30;;;;;;5076722;28;20121;-70
2021/04/06 10:45:44;;;;;;;10.52;2.38;;;6.40;72.50;;;;;;5075037;28;20496;-72
2021/04/06 10:48:20;;;;;;;13.20;1.70;;;6.60;67.90;;;;;;5076620;28;20036;-71
2021/04/06 10:50:47;;;;;;;10.00;2.38;;;6.60;66.50;;;;;;5076487;28;20040;-70
2021/04/06 10:53:29;;;;;;;8.00;2.67;;;6.40;69.80;;;;;;5058553;28;20123;-70
2021/04/06 10:56:02;;;;;;;9.80;2.05;;;6.00;70.60;;;;;;5075935;28;20090;-70
2021/04/06 10:58:32;;;;;;;9.73;2.75;;;5.90;70.20;;;;;;5076033;28;20125;-70
2021/04/06 11:01:03;;;;;;;11.75;2.38;;;5.90;68.90;;;;;;5075717;28;20040;-71
2021/04/06 11:03:49;;;;;;;9.73;2.92;;;6.10;72.10;;;;;;5075268;28;20036;-70
2021/04/06 11:06:22;;;;;;;13.40;3.33;;;6.40;74.20;;;;;;5076271;28;20093;-70
2021/04/06 11:08:51;;;;;;;8.73;2.35;;;6.60;76.50;;;;;;5076163;28;20058;-71
2021/04/06 11:11:19;;;;;;;8.45;1.77;;;6.60;74.60;;;;;;5076095;28;20045;-70
2021/04/06 11:13:46;;;;;;;9.55;1.85;;;6.60;72.40;;;;;;5075174;28;20091;-71
2021/04/06 11:16:12;;;;;;;7.20;2.00;;;6.70;73.20;;;;;;5075171;28;20488;-70
2021/04/06 11:18:38;;;;;;;8.43;2.20;;;6.80;73.40;;;;;;5075999;28;20094;-70
2021/04/06 11:21:04;;;;;;;8.98;1.48;;;7.00;71.40;;;;;;5076445;28;20044;-70
2021/04/06 11:23:30;;;;;;;13.20;2.60;;;6.80;69.00;;;;;;5075537;28;20045;-70
2021/04/06 11:25:56;;;;;;;7.03;1.70;;;6.90;69.60;;;;;;5074937;28;20040;-71
2021/04/06 11:28:22;;;;;;;10.18;1.90;;;6.80;67.80;;;;;;5074683;28;20120;-70
2021/04/06 11:30:47;;;;;;;7.85;2.45;;;6.40;63.50;;;;;;5075992;28;20090;-70
2021/04/06 11:33:13;;;;;;;11.70;2.20;;;6.30;63.80;;;;;;5076391;28;20040;-70
2021/04/06 11:35:40;;;;;;;13.45;2.17;;;6.10;65.30;;;;;;5074637;28;20064;-70
2021/04/06 11:38:06;;;;;;;10.02;2.08;;;6.10;65.40;;;;;;5074606;28;20037;-70
2021/04/06 11:40:31;;;;;;;8.40;2.17;;;6.20;66.00;;;;;;5075377;28;20037;-70
2021/04/06 11:42:57;;;;;;;9.52;2.33;;;6.30;64.40;;;;;;5075615;28;20032;-70
2021/04/06 11:45:24;;;;;;;8.57;1.80;;;6.40;64.10;;;;;;5074824;28;20040;-70
2021/04/06 11:47:52;;;;;;;5.57;1.77;;;6.50;67.00;;;;;;5075205;28;20036;-70
2021/04/06 11:50:19;;;;;;;12.35;2.40;;;6.40;67.20;;;;;;5074969;28;20051;-70
2021/04/06 11:52:45;;;;;;;10.50;2.17;;;6.40;66.70;;;;;;5075196;28;20490;-70
2021/04/06 11:55:11;;;;;;;10.65;1.95;;;6.20;70.40;;;;;;5074915;28;20065;-70
2021/04/06 11:57:37;;;;;;;15.02;3.22;;;6.10;71.00;;;;;;5075122;28;20047;-70
2021/04/06 12:00:04;;;;;;;11.23;2.53;;;6.10;72.80;;;;;;5074985;28;20042;-70
2021/04/06 12:02:30;;;;;;;15.20;3.03;;;5.80;72.10;;;;;;5075067;28;20037;-70
2021/04/06 12:04:56;;;;;;;11.75;3.00;;;6.00;73.60;;;;;;5074605;28;20048;-70
2021/04/06 12:07:21;;;;;;;7.88;2.38;;;6.20;73.50;;;;;;5075030;28;20051;-70
2021/04/06 12:09:47;;;;;;;11.43;2.45;;;6.20;70.20;;;;;;5074890;28;20122;-70
2021/04/06 12:12:13;;;;;;;9.07;2.50;;;6.30;68.20;;;;;;5075398;28;20503;-71
2021/04/06 12:14:39;;;;;;;17.45;3.08;;;6.20;66.80;;;;;;5074993;28;20404;-71
2021/04/06 12:17:05;;;;;;;12.27;2.45;;;6.20;66.50;;;;;;5074705;28;20037;-71
2021/04/06 12:19:31;;;;;;;21.63;4.40;;;6.10;66.80;;;;;;5074574;28;20041;-70
2021/04/06 12:21:57;;;;;;;10.45;2.78;;;5.80;69.90;;;;;;5074561;28;20361;-71
2021/04/06 12:24:22;;;;;;;9.32;2.15;;;5.80;72.60;;;;;;5074466;28;20090;-72
2021/04/06 12:26:54;;;;;;;11.93;2.40;;;5.80;74.70;;;;;;5074719;28;20048;-71
2021/04/06 12:29:20;;;;;;;11.13;2.10;;;5.70;74.10;;;;;;5074608;28;20436;-71
2021/04/06 12:31:46;;;;;;;7.88;1.60;;;5.70;72.60;;;;;;5074889;28;20036;-71
2021/04/06 12:34:11;;;;;;;8.38;1.98;;;5.60;73.30;;;;;;5075145;28;20401;-70
2021/04/06 12:36:38;;;;;;;11.52;2.25;;;5.70;72.00;;;;;;5056375;28;20041;-70
2021/04/06 12:39:04;;;;;;;8.27;2.22;;;5.90;72.00;;;;;;5074682;28;20475;-70
2021/04/06 12:41:30;;;;;;;6.80;1.70;;;6.00;70.10;;;;;;5073959;28;20496;-70
2021/04/06 12:43:56;;;;;;;16.35;2.97;;;5.90;68.10;;;;;;5056960;28;20043;-69
2021/04/06 12:46:21;;;;;;;19.88;2.85;;;5.90;67.30;;;;;;5072609;28;20047;-70
2021/04/06 12:48:48;;;;;;;12.60;2.55;;;5.90;66.70;;;;;;5056710;28;20499;-71
2021/04/06 12:51:14;;;;;;;9.32;2.40;;;5.80;68.40;;;;;;5074283;28;20112;-70
2021/04/06 12:53:40;;;;;;;8.13;2.72;;;5.80;67.00;;;;;;5074161;28;20037;-70
2021/04/06 12:56:06;;;;;;;9.80;2.47;;;5.80;67.40;;;;;;5073902;28;20109;-70
2021/04/06 12:58:32;;;;;;;9.50;2.10;;;5.90;68.50;;;;;;5056315;28;20130;-70
2021/04/06 13:00:58;;;;;;;11.43;2.15;;;6.10;68.30;;;;;;5074134;28;20037;-70
2021/04/06 13:03:24;;;;;;;9.95;2.00;;;6.40;69.20;;;;;;5074092;28;20036;-71
2021/04/06 13:05:50;;;;;;;13.32;2.40;;;6.40;67.30;;;;;;5056193;28;20033;-70